createdAt,value
2018-09-14T00:00:07.148Z,20.97
2018-09-14T00:02:34.601Z,19.17
2018-09-14T00:05:02.063Z,21.87
2018-09-14T00:07:29.530Z,19.23
2018-09-14T00:09:57.050Z,20.33
2018-09-14T00:12:24.509Z,25.47
2018-09-14T00:14:51.933Z,156.40
2018-09-14T00:17:19.382Z,35.43
2018-09-14T00:19:46.826Z,25.20
2018-09-14T00:22:14.286Z,27.13
2018-09-14T00:24:41.725Z,28.20
2018-09-14T00:27:09.187Z,27.57
2018-09-14T00:29:36.634Z,25.77
2018-09-14T00:32:04.470Z,28.23
2018-09-14T00:34:31.973Z,54.47
2018-09-14T00:36:59.618Z,30.77
2018-09-14T00:39:27.106Z,26.40
2018-09-14T00:41:54.627Z,29.37
2018-09-14T00:44:22.141Z,29.33
2018-09-14T00:46:49.689Z,67.70
2018-09-14T00:49:17.258Z,44.20
2018-09-14T00:51:44.816Z,26.43
2018-09-14T00:54:12.275Z,26.50
2018-09-14T00:56:39.821Z,26.23
2018-09-14T00:59:07.393Z,32.33
2018-09-14T01:01:34.888Z,31.23
2018-09-14T01:04:02.474Z,108.43
2018-09-14T01:06:30.023Z,71.20
2018-09-14T01:08:57.458Z,148.80
2018-09-14T01:11:24.969Z,36.73
2018-09-14T01:13:52.438Z,24.33
2018-09-14T01:16:19.845Z,25.70
2018-09-14T01:18:47.391Z,28.40
2018-09-14T01:21:14.830Z,23.67
2018-09-14T01:23:42.271Z,27.03
2018-09-14T01:26:09.690Z,30.77
2018-09-14T01:28:37.133Z,32.17
2018-09-14T01:31:04.653Z,25.57
2018-09-14T01:33:32.206Z,24.57
2018-09-14T01:36:12.550Z,24.27
2018-09-14T01:38:40.652Z,29.03
2018-09-14T01:41:08.414Z,24.37
2018-09-14T01:43:35.902Z,25.30
2018-09-14T01:46:03.321Z,21.40
2018-09-14T01:48:30.774Z,22.93
2018-09-14T01:50:58.275Z,23.13
2018-09-14T01:53:26.211Z,26.80
2018-09-14T01:55:53.745Z,22.80
2018-09-14T01:58:21.222Z,22.73
2018-09-14T02:00:49.844Z,22.77
2018-09-14T02:03:18.741Z,21.77
2018-09-14T02:05:47.601Z,19.80
2018-09-14T02:08:15.128Z,20.90
2018-09-14T02:10:42.611Z,20.97
2018-09-14T02:13:10.089Z,21.70
2018-09-14T02:15:37.625Z,22.33
2018-09-14T02:18:05.069Z,18.63
2018-09-14T02:20:32.552Z,19.77
2018-09-14T02:22:59.985Z,17.77
2018-09-14T02:25:27.445Z,25.67
2018-09-14T02:27:54.922Z,28.13
2018-09-14T02:30:22.355Z,29.37
2018-09-14T02:32:49.758Z,30.60
2018-09-14T02:35:17.295Z,34.47
2018-09-14T02:37:44.713Z,25.97
2018-09-14T02:40:12.160Z,21.93
2018-09-14T02:42:39.650Z,23.17
2018-09-14T02:45:07.202Z,20.77
2018-09-14T02:47:34.869Z,21.60
2018-09-14T02:50:02.365Z,20.77
2018-09-14T02:52:29.854Z,23.20
2018-09-14T02:54:57.339Z,21.67
2018-09-14T02:57:24.770Z,22.97
2018-09-14T02:59:52.290Z,24.90
2018-09-14T03:02:19.837Z,21.90
2018-09-14T03:04:47.315Z,23.93
2018-09-14T03:07:14.753Z,32.17
2018-09-14T03:09:42.405Z,30.30
2018-09-14T03:12:09.903Z,29.27
2018-09-14T03:14:37.321Z,28.03
2018-09-14T03:17:04.924Z,28.83
2018-09-14T03:19:32.413Z,35.97
2018-09-14T03:21:59.942Z,32.47
2018-09-14T03:24:27.361Z,30.73
2018-09-14T03:26:54.800Z,25.17
2018-09-14T03:29:22.266Z,28.03
2018-09-14T03:31:49.673Z,25.30
2018-09-14T03:34:17.230Z,28.13
2018-09-14T03:36:44.742Z,31.73
2018-09-14T03:39:12.178Z,26.27
2018-09-14T03:41:39.630Z,27.47
2018-09-14T03:44:07.168Z,27.17
2018-09-14T03:46:34.584Z,26.17
2018-09-14T03:49:02.457Z,24.93
2018-09-14T03:51:30.050Z,27.40
2018-09-14T03:53:57.550Z,27.87
2018-09-14T03:56:24.985Z,26.23
2018-09-14T03:58:52.490Z,28.43
2018-09-14T04:01:19.921Z,25.60
2018-09-14T04:03:47.320Z,27.17
2018-09-14T04:06:14.740Z,28.03
2018-09-14T04:08:42.316Z,28.50
2018-09-14T04:11:09.774Z,28.80
2018-09-14T04:13:37.305Z,27.07
2018-09-14T04:16:04.901Z,29.30
2018-09-14T04:18:32.334Z,32.93
2018-09-14T04:20:59.986Z,28.87
2018-09-14T04:23:27.457Z,28.57
2018-09-14T04:25:54.909Z,36.30
2018-09-14T04:28:22.425Z,37.70
2018-09-14T04:30:50.109Z,39.53
2018-09-14T04:33:17.679Z,41.60
2018-09-14T04:35:45.136Z,44.63
2018-09-14T04:38:12.708Z,46.43
2018-09-14T04:40:40.218Z,45.00
2018-09-14T04:43:07.652Z,48.60
2018-09-14T04:45:35.230Z,45.60
2018-09-14T04:48:02.904Z,44.60
2018-09-14T04:50:30.343Z,47.73
2018-09-14T04:52:57.980Z,47.10
2018-09-14T04:55:25.430Z,44.80
2018-09-14T04:57:52.996Z,49.20
2018-09-14T05:00:20.579Z,45.53
2018-09-14T05:02:48.086Z,44.23
2018-09-14T05:05:15.670Z,42.13
2018-09-14T05:07:43.163Z,40.07
2018-09-14T05:10:10.522Z,40.53
2018-09-14T05:12:38.068Z,32.43
2018-09-14T05:15:05.541Z,35.63
2018-09-14T05:17:33.028Z,31.07
2018-09-14T05:20:00.462Z,32.07
2018-09-14T05:22:27.907Z,34.97
2018-09-14T05:24:55.371Z,44.27
2018-09-14T05:27:22.840Z,34.13
2018-09-14T05:29:50.317Z,35.60
2018-09-14T05:32:17.756Z,36.60
2018-09-14T05:34:45.157Z,28.53
2018-09-14T05:37:12.590Z,34.43
2018-09-14T05:39:40.069Z,30.43
2018-09-14T05:42:07.507Z,33.50
2018-09-14T05:44:35.019Z,41.63
2018-09-14T05:47:02.451Z,44.07
2018-09-14T05:49:29.925Z,45.13
2018-09-14T05:51:57.362Z,42.97
2018-09-14T05:54:24.905Z,39.27
2018-09-14T05:56:52.289Z,38.13
2018-09-14T05:59:19.706Z,34.03
2018-09-14T06:01:47.265Z,38.63
2018-09-14T06:04:14.778Z,38.90
2018-09-14T06:06:42.293Z,38.77
2018-09-14T06:09:11.325Z,39.47
2018-09-14T06:11:38.728Z,35.60
2018-09-14T06:14:06.473Z,41.50
2018-09-14T06:16:34.089Z,40.23
2018-09-14T06:19:01.737Z,35.93
2018-09-14T06:21:29.249Z,34.63
2018-09-14T06:23:56.718Z,41.07
2018-09-14T06:26:24.250Z,40.63
2018-09-14T06:28:51.698Z,38.67
2018-09-14T06:31:19.118Z,36.40
2018-09-14T06:33:46.842Z,38.03
2018-09-14T06:36:14.265Z,36.27
2018-09-14T06:38:41.745Z,38.27
2018-09-14T06:41:09.171Z,33.67
2018-09-14T06:43:36.657Z,37.30
2018-09-14T06:46:04.263Z,42.37
2018-09-14T06:48:31.746Z,38.90
2018-09-14T06:50:59.191Z,43.23
2018-09-14T06:53:26.616Z,42.00
2018-09-14T06:55:54.202Z,41.10
2018-09-14T06:58:21.745Z,33.43
2018-09-14T07:00:49.470Z,37.30
2018-09-14T07:03:16.898Z,40.40
2018-09-14T07:05:44.394Z,41.63
2018-09-14T07:08:11.981Z,41.07
2018-09-14T07:10:39.469Z,40.93
2018-09-14T07:13:06.990Z,40.70
2018-09-14T07:15:34.478Z,43.60
2018-09-14T07:18:02.076Z,41.23
2018-09-14T07:20:29.694Z,46.37
2018-09-14T07:22:57.118Z,45.20
2018-09-14T07:25:24.576Z,43.60
2018-09-14T07:27:52.058Z,44.80
2018-09-14T07:30:19.505Z,50.87
2018-09-14T07:32:47.057Z,47.50
2018-09-14T07:35:14.705Z,44.97
2018-09-14T07:37:42.167Z,46.57
2018-09-14T07:40:09.737Z,49.03
2018-09-14T07:42:37.233Z,50.17
2018-09-14T07:45:04.837Z,45.13
2018-09-14T07:47:32.468Z,46.20
2018-09-14T07:50:00.115Z,43.30
2018-09-14T07:52:27.699Z,50.27
2018-09-14T07:54:55.255Z,49.60
2018-09-14T07:57:22.939Z,49.97
2018-09-14T07:59:50.370Z,50.73
2018-09-14T08:02:17.930Z,48.53
2018-09-14T08:04:45.408Z,44.10
2018-09-14T08:07:12.998Z,51.17
2018-09-14T08:09:40.426Z,44.00
2018-09-14T08:12:14.653Z,43.83
2018-09-14T08:14:42.134Z,40.23
2018-09-14T08:17:09.623Z,41.40
2018-09-14T08:19:37.145Z,39.63
2018-09-14T08:22:04.810Z,44.40
2018-09-14T08:24:32.318Z,43.03
2018-09-14T08:26:59.932Z,38.60
2018-09-14T08:29:27.501Z,38.43
2018-09-14T08:31:54.961Z,42.30
2018-09-14T08:34:22.453Z,42.80
2018-09-14T08:36:49.873Z,45.40
2018-09-14T08:39:17.425Z,36.83
2018-09-14T08:41:44.888Z,39.70
2018-09-14T08:44:12.505Z,40.47
2018-09-14T08:46:39.931Z,37.13
2018-09-14T08:49:07.569Z,37.63
2018-09-14T08:51:35.098Z,35.97
2018-09-14T08:54:02.660Z,41.33
2018-09-14T08:56:30.342Z,38.77
2018-09-14T08:58:57.892Z,39.07
2018-09-14T09:01:25.436Z,40.23
2018-09-14T09:03:53.143Z,35.70
2018-09-14T09:06:20.656Z,37.70
2018-09-14T09:08:48.102Z,37.37
2018-09-14T09:11:15.571Z,31.60
2018-09-14T09:13:43.129Z,34.77
2018-09-14T09:16:10.670Z,33.33
2018-09-14T09:18:38.216Z,29.67
2018-09-14T09:21:05.664Z,28.73
2018-09-14T09:23:33.192Z,28.53
2018-09-14T09:26:00.595Z,30.57
2018-09-14T09:28:28.195Z,32.33
2018-09-14T09:30:55.636Z,28.87
2018-09-14T09:33:23.350Z,29.63
2018-09-14T09:35:50.958Z,28.63
2018-09-14T09:38:18.515Z,33.43
2018-09-14T09:40:45.959Z,30.73
2018-09-14T09:43:13.620Z,26.70
2018-09-14T09:45:41.229Z,26.33
2018-09-14T09:48:08.722Z,24.07
2018-09-14T09:50:36.234Z,25.17
2018-09-14T09:53:03.826Z,27.03
2018-09-14T09:55:31.294Z,25.47
2018-09-14T09:57:58.758Z,28.30
2018-09-14T10:00:31.895Z,26.60
2018-09-14T10:03:05.050Z,27.00
2018-09-14T10:05:38.282Z,26.03
2018-09-14T10:08:05.753Z,26.87
2018-09-14T10:10:33.430Z,35.07
2018-09-14T10:13:01.078Z,25.23
2018-09-14T10:15:28.700Z,26.67
2018-09-14T10:17:56.166Z,28.13
2018-09-14T10:20:23.625Z,26.53
2018-09-14T10:22:51.132Z,26.40
2018-09-14T10:25:18.667Z,28.70
2018-09-14T10:27:46.094Z,26.23
2018-09-14T10:30:13.593Z,26.23
2018-09-14T10:32:41.046Z,32.03
2018-09-14T10:35:08.522Z,31.23
2018-09-14T10:37:35.941Z,31.63
2018-09-14T10:40:03.462Z,25.80
2018-09-14T10:42:30.884Z,29.93
2018-09-14T10:44:58.345Z,28.77
2018-09-14T10:47:25.750Z,29.67
2018-09-14T10:49:53.300Z,33.30
2018-09-14T10:52:20.948Z,29.23
2018-09-14T10:54:48.448Z,1999.90
2018-09-14T10:57:15.874Z,1999.90
2018-09-14T10:59:43.355Z,1429.83
2018-09-14T11:02:10.801Z,1053.07
2018-09-14T11:04:38.301Z,148.43
2018-09-14T11:07:05.985Z,50.30
2018-09-14T11:09:33.393Z,39.57
2018-09-14T11:12:00.808Z,32.83
2018-09-14T11:14:28.269Z,28.97
2018-09-14T11:16:55.798Z,31.37
2018-09-14T11:19:23.258Z,27.87
2018-09-14T11:21:50.759Z,27.60
2018-09-14T11:24:18.446Z,26.60
2018-09-14T11:26:45.896Z,28.47
2018-09-14T11:29:13.349Z,27.67
2018-09-14T11:31:40.853Z,27.70
2018-09-14T11:34:08.312Z,29.17
2018-09-14T11:36:35.867Z,26.97
2018-09-14T11:39:04.938Z,25.83
2018-09-14T11:41:32.403Z,27.00
2018-09-14T11:43:59.962Z,27.90
2018-09-14T11:46:27.409Z,26.10
2018-09-14T11:48:54.872Z,24.50
2018-09-14T11:51:22.342Z,24.70
2018-09-14T11:53:49.788Z,23.07
2018-09-14T11:56:17.265Z,23.67
2018-09-14T11:58:44.742Z,22.77
2018-09-14T12:01:12.204Z,24.33
2018-09-14T12:03:39.667Z,26.73
2018-09-14T12:06:07.134Z,226.40
2018-09-14T12:08:34.590Z,72.23
2018-09-14T12:11:02.135Z,25.83
2018-09-14T12:13:29.655Z,360.07
2018-09-14T12:15:57.097Z,54.47
2018-09-14T12:18:24.557Z,26.43
2018-09-14T12:20:52.283Z,24.13
2018-09-14T12:23:19.761Z,20.83
2018-09-14T12:25:47.274Z,20.87
2018-09-14T12:28:14.858Z,25.77
2018-09-14T12:30:42.414Z,1999.90
2018-09-14T12:33:09.986Z,1992.20
2018-09-14T12:35:37.879Z,881.43
2018-09-14T12:38:05.625Z,1101.17
2018-09-14T12:40:33.155Z,159.60
2018-09-14T12:43:00.814Z,1098.47
2018-09-14T12:45:28.492Z,204.87
2018-09-14T12:47:55.983Z,23.77
2018-09-14T12:50:23.568Z,21.67
2018-09-14T12:52:51.114Z,1106.07
2018-09-14T12:55:18.706Z,561.03
2018-09-14T13:00:39.709Z,16.93
2018-09-14T13:03:07.222Z,15.97
2018-09-14T13:05:34.688Z,59.67
2018-09-14T13:08:02.174Z,18.47
2018-09-14T13:10:29.700Z,20.47
2018-09-14T13:12:57.164Z,304.17
2018-09-14T13:15:24.632Z,418.10
2018-09-14T13:17:52.088Z,56.03
2018-09-14T13:20:19.591Z,38.53
2018-09-14T13:22:47.030Z,37.60
2018-09-14T13:25:14.531Z,46.53
2018-09-14T13:27:41.977Z,44.47
2018-09-14T13:30:09.631Z,42.67
2018-09-14T13:32:37.742Z,35.97
2018-09-14T13:35:05.244Z,31.53
2018-09-14T13:37:32.672Z,27.27
2018-09-14T13:40:00.146Z,27.97
2018-09-14T13:42:27.749Z,30.57
2018-09-14T13:44:55.343Z,24.67
2018-09-14T13:47:22.860Z,24.63
2018-09-14T13:49:50.303Z,25.83
2018-09-14T13:52:17.872Z,22.47
2018-09-14T13:54:45.305Z,19.60
2018-09-14T13:57:12.785Z,20.90
2018-09-14T13:59:40.276Z,19.30
2018-09-14T14:02:07.750Z,16.47
2018-09-14T14:04:35.238Z,15.17
2018-09-14T14:07:02.713Z,17.73
2018-09-14T14:09:30.146Z,18.23
2018-09-14T14:11:57.626Z,13.53
2018-09-14T14:14:25.073Z,12.03
2018-09-14T14:16:52.545Z,11.80
2018-09-14T14:19:20.031Z,11.60
2018-09-14T14:21:47.662Z,11.97
2018-09-14T14:24:15.121Z,11.10
2018-09-14T14:26:42.566Z,13.00
2018-09-14T14:29:10.020Z,11.13
2018-09-14T14:31:37.620Z,11.73
2018-09-14T14:34:05.216Z,10.80
2018-09-14T14:36:32.762Z,10.63
2018-09-14T14:39:00.220Z,14.40
2018-09-14T14:41:27.717Z,11.80
2018-09-14T14:43:55.301Z,15.47
2018-09-14T14:46:22.733Z,15.03
2018-09-14T14:48:50.233Z,16.20
2018-09-14T14:51:17.717Z,20.33
2018-09-14T14:53:45.167Z,18.07
2018-09-14T14:56:12.618Z,18.20
2018-09-14T14:58:40.076Z,18.90
2018-09-14T15:01:07.493Z,20.80
2018-09-14T15:03:35.086Z,20.00
2018-09-14T15:06:02.687Z,19.10
2018-09-14T15:08:30.105Z,18.83
2018-09-14T15:10:57.618Z,23.00
2018-09-14T15:13:25.087Z,20.73
2018-09-14T15:15:52.542Z,21.47
2018-09-14T15:18:20.038Z,22.90
2018-09-14T15:20:47.569Z,21.70
2018-09-14T15:23:15.048Z,19.80
2018-09-14T15:25:42.554Z,21.97
2018-09-14T15:28:10.067Z,20.90
2018-09-14T15:30:37.545Z,19.87
2018-09-14T15:33:05.205Z,20.07
2018-09-14T15:35:32.658Z,19.57
2018-09-14T15:38:00.170Z,18.23
2018-09-14T15:40:27.617Z,20.30
2018-09-14T15:42:55.088Z,20.63
2018-09-14T15:45:22.516Z,18.60
2018-09-14T15:47:50.083Z,20.00
2018-09-14T15:50:17.543Z,21.03
2018-09-14T15:52:45.179Z,18.13
2018-09-14T15:55:12.766Z,20.17
2018-09-14T15:57:40.226Z,18.17
2018-09-14T16:00:07.758Z,20.33
2018-09-14T16:02:35.377Z,21.00
2018-09-14T16:05:02.927Z,20.87
2018-09-14T16:07:30.426Z,19.77
2018-09-14T16:09:57.890Z,20.40
2018-09-14T16:12:25.353Z,18.47
2018-09-14T16:14:52.830Z,19.60
2018-09-14T16:17:20.331Z,22.60
2018-09-14T16:19:47.832Z,23.67
2018-09-14T16:22:15.396Z,20.53
2018-09-14T16:24:42.966Z,18.93
2018-09-14T16:27:10.402Z,21.40
2018-09-14T16:29:37.893Z,17.40
2018-09-14T16:32:05.451Z,15.93
2018-09-14T16:34:32.910Z,14.47
2018-09-14T16:37:00.411Z,18.47
2018-09-14T16:39:27.875Z,17.13
2018-09-14T16:41:55.300Z,16.07
2018-09-14T16:44:22.792Z,15.90
2018-09-14T16:46:50.281Z,15.73
2018-09-14T16:49:17.769Z,16.00
2018-09-14T16:51:45.299Z,14.53
2018-09-14T16:54:12.747Z,15.47
2018-09-14T16:56:40.875Z,17.57
2018-09-14T16:59:08.381Z,15.70
2018-09-14T17:01:35.946Z,13.77
2018-09-14T17:04:03.437Z,13.63
2018-09-14T17:06:30.942Z,13.73
2018-09-14T17:08:58.761Z,15.23
2018-09-14T17:11:26.217Z,15.43
2018-09-14T17:13:53.790Z,14.33
2018-09-14T17:16:21.330Z,13.43
2018-09-14T17:18:48.736Z,13.33
2018-09-14T17:21:16.349Z,18.03
2018-09-14T17:23:43.894Z,14.53
2018-09-14T17:26:11.385Z,12.87
2018-09-14T17:28:38.885Z,15.70
2018-09-14T17:31:06.527Z,16.57
2018-09-14T17:33:33.946Z,14.73
2018-09-14T17:36:01.394Z,16.80
2018-09-14T17:38:28.853Z,15.37
2018-09-14T17:40:56.296Z,15.57
2018-09-14T17:43:23.831Z,16.17
2018-09-14T17:45:51.312Z,12.40
2018-09-14T17:48:18.759Z,14.33
2018-09-14T17:50:46.256Z,12.00
2018-09-14T17:53:13.774Z,17.53
2018-09-14T17:55:41.266Z,13.67
2018-09-14T17:58:08.764Z,13.20
2018-09-14T18:00:36.333Z,13.67
2018-09-14T18:03:03.898Z,13.90
2018-09-14T18:05:31.355Z,11.13
2018-09-14T18:07:58.840Z,14.07
2018-09-14T18:10:26.275Z,13.13
2018-09-14T18:12:53.747Z,10.70
2018-09-14T18:15:21.267Z,13.97
2018-09-14T18:17:48.933Z,13.57
2018-09-14T18:20:16.411Z,13.30
2018-09-14T18:22:43.998Z,14.43
2018-09-14T18:25:11.543Z,11.57
2018-09-14T18:27:39.087Z,13.10
2018-09-14T18:30:06.894Z,13.63
2018-09-14T18:32:34.431Z,15.03
2018-09-14T18:35:02.125Z,11.70
2018-09-14T18:37:29.614Z,12.03
2018-09-14T18:39:57.086Z,13.73
2018-09-14T18:42:24.652Z,12.27
2018-09-14T18:44:52.727Z,11.27
2018-09-14T18:47:20.223Z,11.53
2018-09-14T18:49:47.668Z,11.63
2018-09-14T18:52:15.206Z,11.37
2018-09-14T18:54:42.682Z,13.07
2018-09-14T18:57:10.147Z,10.93
2018-09-14T18:59:37.650Z,11.60
2018-09-14T19:02:05.130Z,11.30
2018-09-14T19:04:32.689Z,10.90
2018-09-14T19:07:00.118Z,14.03
2018-09-14T19:09:27.741Z,10.57
2018-09-14T19:11:55.223Z,11.07
2018-09-14T19:14:22.942Z,10.27
2018-09-14T19:16:50.394Z,12.13
2018-09-14T19:19:18.018Z,13.17
2018-09-14T19:21:45.418Z,10.60
2018-09-14T19:24:12.982Z,11.77
2018-09-14T19:26:40.427Z,11.03
2018-09-14T19:29:07.891Z,10.63
2018-09-14T19:31:35.583Z,9.87
2018-09-14T19:34:03.174Z,10.13
2018-09-14T19:36:30.839Z,10.00
2018-09-14T19:38:58.358Z,10.37
2018-09-14T19:41:25.840Z,10.70
2018-09-14T19:43:53.606Z,10.43
2018-09-14T19:46:21.209Z,12.90
2018-09-14T19:48:48.722Z,9.33
2018-09-14T19:51:16.320Z,10.30
2018-09-14T19:53:43.717Z,9.27
2018-09-14T19:56:11.298Z,11.43
2018-09-14T19:58:38.711Z,11.57
2018-09-14T20:01:06.234Z,10.60
2018-09-14T20:03:33.773Z,11.37
2018-09-14T20:06:01.289Z,10.43
2018-09-14T20:08:28.827Z,8.97
2018-09-14T20:10:56.465Z,11.23
2018-09-14T20:13:24.042Z,12.03
2018-09-14T20:15:51.562Z,9.97
2018-09-14T20:18:19.112Z,9.67
2018-09-14T20:20:46.566Z,9.77
2018-09-14T20:23:14.171Z,11.70
2018-09-14T20:25:41.747Z,9.27
2018-09-14T20:28:09.245Z,9.83
2018-09-14T20:30:36.873Z,9.73
2018-09-14T20:33:04.361Z,9.00
2018-09-14T20:35:31.920Z,13.57
2018-09-14T20:37:59.413Z,23.80
2018-09-14T20:40:26.833Z,17.43
2018-09-14T20:42:54.310Z,8.97
2018-09-14T20:45:21.808Z,10.67
2018-09-14T20:47:49.434Z,9.10
2018-09-14T20:50:17.021Z,9.27
2018-09-14T20:52:44.569Z,10.33
2018-09-14T20:55:12.027Z,10.93
2018-09-14T20:57:39.536Z,9.50
2018-09-14T21:00:07.260Z,9.17
2018-09-14T21:02:34.845Z,11.47
2018-09-14T21:05:03.426Z,23.23
2018-09-14T21:07:30.976Z,258.50
2018-09-14T21:09:58.523Z,511.50
2018-09-14T21:12:26.011Z,159.13
2018-09-14T21:14:53.678Z,52.87
2018-09-14T21:17:21.425Z,9.23
2018-09-14T21:19:48.969Z,8.87
2018-09-14T21:22:16.432Z,10.57
2018-09-14T21:24:43.990Z,11.20
2018-09-14T21:27:11.518Z,8.93
2018-09-14T21:29:39.183Z,9.17
2018-09-14T21:32:06.637Z,13.17
2018-09-14T21:34:34.145Z,9.63
2018-09-14T21:37:01.651Z,11.63
2018-09-14T21:39:29.109Z,11.17
2018-09-14T21:41:56.539Z,9.23
2018-09-14T21:44:24.025Z,10.73
2018-09-14T21:46:51.578Z,10.17
2018-09-14T21:49:19.051Z,10.60
2018-09-14T21:51:46.611Z,12.33
2018-09-14T21:54:14.079Z,11.63
2018-09-14T21:56:41.613Z,121.57
2018-09-14T21:59:09.034Z,50.63
2018-09-14T22:01:36.617Z,16.03
2018-09-14T22:04:04.179Z,13.87
2018-09-14T22:06:31.713Z,12.57
2018-09-14T22:08:59.261Z,11.37
2018-09-14T22:11:26.834Z,9.60
2018-09-14T22:13:54.365Z,29.90
2018-09-14T22:16:21.825Z,114.20
2018-09-14T22:18:49.437Z,25.53
2018-09-14T22:21:17.477Z,10.00
2018-09-14T22:23:44.937Z,106.50
2018-09-14T22:26:12.402Z,532.53
2018-09-14T22:28:39.947Z,289.33
2018-09-14T22:31:07.423Z,68.10
2018-09-14T22:33:34.873Z,21.70
2018-09-14T22:36:02.341Z,11.63
2018-09-14T22:38:29.776Z,10.37
2018-09-14T22:40:57.247Z,287.63
2018-09-14T22:43:24.715Z,279.27
2018-09-14T22:45:52.214Z,14.00
2018-09-14T22:48:19.668Z,10.47
2018-09-14T22:50:47.194Z,10.30
2018-09-14T22:53:14.630Z,9.83
2018-09-14T22:55:42.196Z,9.73
2018-09-14T22:58:09.673Z,9.70
2018-09-14T23:00:42.920Z,10.37
2018-09-14T23:03:10.505Z,8.70
2018-09-14T23:05:37.983Z,9.17
2018-09-14T23:08:05.515Z,8.87
2018-09-14T23:10:32.979Z,586.40
2018-09-14T23:13:00.573Z,289.83
2018-09-14T23:15:28.069Z,11.53
2018-09-14T23:17:55.558Z,22.80
2018-09-14T23:20:23.061Z,9.23
2018-09-14T23:22:50.546Z,9.60
2018-09-14T23:25:18.074Z,176.97
2018-09-14T23:27:45.595Z,261.97
2018-09-14T23:30:12.994Z,52.07
2018-09-14T23:32:40.464Z,16.83
2018-09-14T23:35:07.905Z,11.17
2018-09-14T23:37:35.354Z,150.00
2018-09-14T23:40:02.880Z,10.37
2018-09-14T23:42:30.307Z,8.03
2018-09-14T23:44:57.775Z,8.60
2018-09-14T23:47:25.247Z,8.30
2018-09-14T23:49:52.717Z,8.53
2018-09-14T23:52:20.238Z,593.53
2018-09-14T23:54:47.842Z,51.40
2018-09-14T23:57:15.273Z,9.83
2018-09-14T23:59:42.713Z,13.07
